Time;durP1;ratioP1;P1;durP2;ratioP2;P2;SDS_P1;SDS_P2;PMS_P1;PMS_P2;Temp;Humidity;BMP_temperature;BMP_pressure;BME280_temperature;BME280_humidity;BME280_pressure;Samples;Min_cycle;Max_cycle;Signal;HPM_P1;HPM_P2
2023/01/08 00:00:09;;;;;;;1999.90;999.90;;;;;;;;;;5021617;28;20092;-56
2023/01/08 00:02:37;;;;;;;1999.90;999.90;;;;;;;;;;5022362;28;20139;-59
2023/01/08 00:05:04;;;;;;;1999.90;999.90;;;;;;;;;;5020352;28;20139;-55
2023/01/08 00:07:31;;;;;;;1999.90;999.90;;;;;;;;;;5021157;28;20497;-62
2023/01/08 00:09:57;;;;;;;1999.90;999.90;;;;;;;;;;5023163;28;20144;-61
2023/01/08 00:12:24;;;;;;;1999.90;999.90;;;;;;;;;;5023603;28;20149;-60
2023/01/08 00:14:51;;;;;;;1999.90;999.90;;;;;;;;;;5021330;28;20081;-67
2023/01/08 00:17:17;;;;;;;1999.90;999.90;;;;;;;;;;5018895;28;20559;-62
2023/01/08 00:19:45;;;;;;;1999.90;999.90;;;;;;;;;;5021191;28;20085;-63
2023/01/08 00:22:12;;;;;;;1999.90;999.90;;;;;;;;;;5021436;28;20080;-64
2023/01/08 00:24:38;;;;;;;1999.90;999.90;;;;;;;;;;5023850;28;20160;-61
2023/01/08 00:27:05;;;;;;;1999.90;999.90;;;;;;;;;;5016742;28;20469;-61
2023/01/08 00:29:31;;;;;;;1999.90;999.90;;;;;;;;;;5019967;28;20104;-62
2023/01/08 00:31:58;;;;;;;1999.90;999.90;;;;;;;;;;5021355;28;20050;-62
2023/01/08 00:34:24;;;;;;;1999.90;999.90;;;;;;;;;;5022152;28;20139;-63
2023/01/08 00:36:52;;;;;;;1999.90;999.90;;;;;;;;;;5021466;28;20539;-62
2023/01/08 00:39:18;;;;;;;1999.90;999.90;;;;;;;;;;5018945;28;20163;-59
2023/01/08 00:41:45;;;;;;;1999.90;999.90;;;;;;;;;;5017955;28;20082;-62
2023/01/08 00:44:11;;;;;;;1999.90;999.90;;;;;;;;;;5021560;28;20489;-61
2023/01/08 00:46:38;;;;;;;1999.90;999.90;;;;;;;;;;5021105;28;20789;-60
2023/01/08 00:49:05;;;;;;;1999.90;999.90;;;;;;;;;;5023608;28;20086;-61
2023/01/08 00:51:31;;;;;;;1999.90;999.90;;;;;;;;;;5022528;28;20091;-62
2023/01/08 00:53:59;;;;;;;1999.90;999.90;;;;;;;;;;5020820;28;20496;-59
2023/01/08 00:56:25;;;;;;;1999.90;999.90;;;;;;;;;;5020947;28;20547;-64
2023/01/08 00:58:52;;;;;;;1999.90;999.90;;;;;;;;;;5021297;28;20132;-64
2023/01/08 01:01:18;;;;;;;1999.90;999.90;;;;;;;;;;5019620;28;20165;-60
2023/01/08 01:03:45;;;;;;;1999.90;999.90;;;;;;;;;;5015554;28;20201;-65
2023/01/08 01:06:13;;;;;;;1999.90;999.90;;;;;;;;;;5023248;28;20508;-65
2023/01/08 01:08:40;;;;;;;1999.90;999.90;;;;;;;;;;5025802;28;20131;-63
2023/01/08 01:11:09;;;;;;;1999.90;999.90;;;;;;;;;;5017680;28;20484;-65
2023/01/08 01:13:35;;;;;;;1999.90;999.90;;;;;;;;;;5016960;28;20058;-64
2023/01/08 01:16:02;;;;;;;1999.90;999.90;;;;;;;;;;5022763;28;20984;-58
2023/01/08 01:18:29;;;;;;;1999.90;999.90;;;;;;;;;;5017792;28;20049;-57
2023/01/08 01:20:55;;;;;;;1999.90;999.90;;;;;;;;;;5024304;28;20469;-55
2023/01/08 01:23:22;;;;;;;1999.90;999.90;;;;;;;;;;5026245;28;20141;-59
2023/01/08 01:25:49;;;;;;;1999.90;999.90;;;;;;;;;;5019511;28;20480;-57
2023/01/08 01:28:17;;;;;;;1999.90;999.90;;;;;;;;;;5017507;28;20140;-58
2023/01/08 01:30:43;;;;;;;1999.90;999.90;;;;;;;;;;5020070;28;20049;-57
2023/01/08 01:33:10;;;;;;;1999.90;999.90;;;;;;;;;;5019322;28;20151;-56
2023/01/08 01:35:36;;;;;;;1999.90;999.90;;;;;;;;;;5019531;28;20181;-60
2023/01/08 01:38:03;;;;;;;1999.90;999.90;;;;;;;;;;5020117;28;20073;-58
2023/01/08 01:40:29;;;;;;;1999.90;999.90;;;;;;;;;;5018443;28;20480;-57
2023/01/08 01:42:56;;;;;;;1999.90;999.90;;;;;;;;;;5020523;28;20045;-57
2023/01/08 01:45:26;;;;;;;1999.90;999.90;;;;;;;;;;5021371;28;20080;-58
2023/01/08 01:47:55;;;;;;;1999.90;999.90;;;;;;;;;;5025593;28;20132;-61
2023/01/08 01:50:27;;;;;;;1999.90;999.90;;;;;;;;;;5020674;28;20137;-60
2023/01/08 01:52:58;;;;;;;1999.90;999.90;;;;;;;;;;5022913;28;20540;-58
2023/01/08 01:55:26;;;;;;;1999.90;999.90;;;;;;;;;;5019657;28;20116;-56
2023/01/08 01:57:58;;;;;;;1999.90;999.90;;;;;;;;;;5019703;28;20125;-58
2023/01/08 02:00:27;;;;;;;1999.90;999.90;;;;;;;;;;5020927;28;20500;-60
2023/01/08 02:02:54;;;;;;;1999.90;999.90;;;;;;;;;;5036582;22;20111;-55
2023/01/08 02:05:22;;;;;;;1999.90;999.90;;;;;;;;;;5029577;28;20171;-57
2023/01/08 02:07:54;;;;;;;1999.90;999.90;;;;;;;;;;5032684;28;20582;-58
2023/01/08 02:10:29;;;;;;;1999.90;999.90;;;;;;;;;;5032568;28;20535;-58
2023/01/08 02:12:59;;;;;;;1999.90;999.90;;;;;;;;;;5032214;28;20053;-54
2023/01/08 02:15:32;;;;;;;1999.90;999.90;;;;;;;;;;5031963;28;20108;-57
2023/01/08 02:18:05;;;;;;;1999.90;999.90;;;;;;;;;;5032089;28;20136;-55
2023/01/08 02:20:35;;;;;;;1999.90;999.90;;;;;;;;;;5030599;28;20462;-58
2023/01/08 02:23:15;;;;;;;1999.90;999.90;;;;;;;;;;5032096;28;20084;-58
2023/01/08 02:26:00;;;;;;;1999.90;999.90;;;;;;;;;;5031630;28;20334;-57
2023/01/08 02:28:28;;;;;;;1999.90;999.90;;;;;;;;;;5031944;28;20474;-58
2023/01/08 02:30:55;;;;;;;1999.90;999.90;;;;;;;;;;5032121;28;20084;-57
2023/01/08 02:33:23;;;;;;;1999.90;999.90;;;;;;;;;;5032183;28;20540;-58
2023/01/08 02:35:53;;;;;;;1999.90;999.90;;;;;;;;;;5032009;28;20452;-55
2023/01/08 02:38:20;;;;;;;1999.90;999.90;;;;;;;;;;5031488;28;20128;-56
2023/01/08 02:40:55;;;;;;;1999.90;999.90;;;;;;;;;;5032217;28;20068;-56
2023/01/08 02:43:26;;;;;;;1999.90;999.90;;;;;;;;;;5031844;28;20419;-57
2023/01/08 02:45:55;;;;;;;1999.90;999.90;;;;;;;;;;5031062;28;20140;-57
2023/01/08 02:48:28;;;;;;;1999.90;999.90;;;;;;;;;;5029087;28;20049;-57
2023/01/08 02:50:56;;;;;;;1999.90;999.90;;;;;;;;;;5031845;28;20516;-55
2023/01/08 02:53:25;;;;;;;1999.90;999.90;;;;;;;;;;5032008;28;20563;-57
2023/01/08 02:55:53;;;;;;;1999.90;999.90;;;;;;;;;;5031593;28;20045;-57
2023/01/08 02:58:22;;;;;;;1999.90;999.90;;;;;;;;;;5031845;28;20128;-57
2023/01/08 03:00:50;;;;;;;1999.90;999.90;;;;;;;;;;5031497;28;20132;-56
2023/01/08 03:03:20;;;;;;;1999.90;999.90;;;;;;;;;;5031496;28;20160;-55
2023/01/08 03:05:51;;;;;;;1999.90;999.90;;;;;;;;;;5030507;28;20050;-56
2023/01/08 03:08:19;;;;;;;1999.90;999.90;;;;;;;;;;5031060;28;20136;-58
2023/01/08 03:10:47;;;;;;;1999.90;999.90;;;;;;;;;;5031547;28;20056;-54
2023/01/08 03:13:18;;;;;;;1999.90;999.90;;;;;;;;;;5031693;28;20960;-57
2023/01/08 03:15:48;;;;;;;1999.90;999.90;;;;;;;;;;5031166;28;20053;-56
2023/01/08 03:18:19;;;;;;;1999.90;999.90;;;;;;;;;;5028464;28;20091;-57
2023/01/08 03:20:46;;;;;;;1999.90;999.90;;;;;;;;;;5031225;28;20132;-57
2023/01/08 03:23:14;;;;;;;1999.90;999.90;;;;;;;;;;5031516;28;20084;-56
2023/01/08 03:25:42;;;;;;;1999.90;999.90;;;;;;;;;;5030942;28;20057;-57
2023/01/08 03:28:12;;;;;;;1999.90;999.90;;;;;;;;;;5030709;28;20140;-58
2023/01/08 03:34:02;;;;;;;1999.90;999.90;;;;;;;;;;5031126;28;20121;-57
2023/01/08 03:36:30;;;;;;;1999.90;999.90;;;;;;;;;;5030390;28;20135;-56
2023/01/08 03:38:59;;;;;;;1999.90;999.90;;;;;;;;;;5030721;28;20084;-57
2023/01/08 03:41:29;;;;;;;1999.90;999.90;;;;;;;;;;5030266;28;20140;-55
2023/01/08 03:43:55;;;;;;;1999.90;999.90;;;;;;;;;;5031103;28;20661;-57
2023/01/08 03:46:24;;;;;;;1999.90;999.90;;;;;;;;;;5030456;28;20136;-55
2023/01/08 03:48:51;;;;;;;1999.90;999.90;;;;;;;;;;5029386;28;20133;-57
2023/01/08 03:51:19;;;;;;;1999.90;999.90;;;;;;;;;;5030592;28;20145;-56
2023/01/08 03:53:46;;;;;;;1999.90;999.90;;;;;;;;;;5030572;28;20145;-56
2023/01/08 03:56:12;;;;;;;1999.90;999.90;;;;;;;;;;5030290;28;20186;-57
2023/01/08 03:58:39;;;;;;;1999.90;999.90;;;;;;;;;;5030691;28;20140;-56
2023/01/08 04:01:05;;;;;;;1999.90;999.90;;;;;;;;;;5030446;28;20045;-55
2023/01/08 04:03:32;;;;;;;1999.90;999.90;;;;;;;;;;5029583;28;20885;-57
2023/01/08 04:05:59;;;;;;;1999.90;999.90;;;;;;;;;;5029693;28;20155;-56
2023/01/08 04:08:27;;;;;;;1999.90;999.90;;;;;;;;;;5029740;28;20053;-56
2023/01/08 04:10:53;;;;;;;1999.90;999.90;;;;;;;;;;5030284;28;20100;-57
2023/01/08 04:13:20;;;;;;;1999.90;999.90;;;;;;;;;;5030318;28;20128;-57
2023/01/08 04:15:47;;;;;;;1999.90;999.90;;;;;;;;;;5030090;28;20055;-57
2023/01/08 04:18:14;;;;;;;1999.90;999.90;;;;;;;;;;5029737;28;20115;-55
2023/01/08 04:20:45;;;;;;;1999.90;999.90;;;;;;;;;;5030106;28;20088;-55
2023/01/08 04:23:11;;;;;;;1999.90;999.90;;;;;;;;;;5030200;28;20053;-56
2023/01/08 04:25:39;;;;;;;1999.90;999.90;;;;;;;;;;5029853;28;20049;-57
2023/01/08 04:28:05;;;;;;;1999.90;999.90;;;;;;;;;;5029838;28;20136;-55
2023/01/08 04:30:32;;;;;;;1999.90;999.90;;;;;;;;;;5029473;28;20144;-58
2023/01/08 04:32:58;;;;;;;1999.90;999.90;;;;;;;;;;5030107;28;20590;-57
2023/01/08 04:35:25;;;;;;;1999.90;999.90;;;;;;;;;;5029714;28;20081;-56
2023/01/08 04:37:51;;;;;;;1999.90;999.90;;;;;;;;;;5029851;28;20523;-54
2023/01/08 04:40:18;;;;;;;1999.90;999.90;;;;;;;;;;5029729;28;20080;-57
2023/01/08 04:42:46;;;;;;;1999.90;999.90;;;;;;;;;;5029654;28;20145;-57
2023/01/08 04:45:12;;;;;;;1999.90;999.90;;;;;;;;;;5029817;28;20153;-56
2023/01/08 04:47:39;;;;;;;1999.90;999.90;;;;;;;;;;5029727;28;20095;-56
2023/01/08 04:50:06;;;;;;;1999.90;999.90;;;;;;;;;;5029934;28;20125;-57
2023/01/08 04:52:33;;;;;;;1999.90;999.90;;;;;;;;;;5029171;28;20104;-56
2023/01/08 04:54:59;;;;;;;1999.90;999.90;;;;;;;;;;5029590;28;20091;-55
2023/01/08 04:57:26;;;;;;;1999.90;999.90;;;;;;;;;;5029959;28;20164;-57
2023/01/08 04:59:54;;;;;;;1999.90;999.90;;;;;;;;;;5029875;28;20170;-57
2023/01/08 05:02:20;;;;;;;1999.90;999.90;;;;;;;;;;5029390;28;20460;-57
2023/01/08 05:04:47;;;;;;;1999.90;999.90;;;;;;;;;;5029010;28;20124;-57
2023/01/08 05:07:14;;;;;;;1999.90;999.90;;;;;;;;;;5029561;28;20152;-56
2023/01/08 05:09:40;;;;;;;1999.90;999.90;;;;;;;;;;5029314;28;20481;-57
2023/01/08 05:12:07;;;;;;;1999.90;999.90;;;;;;;;;;5029703;28;20080;-56
2023/01/08 05:14:33;;;;;;;1999.90;999.90;;;;;;;;;;5029627;28;20504;-56
2023/01/08 05:17:01;;;;;;;1999.90;999.90;;;;;;;;;;5029582;28;20081;-56
2023/01/08 05:19:28;;;;;;;1999.90;999.90;;;;;;;;;;5029562;28;20073;-57
2023/01/08 05:21:54;;;;;;;1999.90;999.90;;;;;;;;;;5029458;28;20148;-55
2023/01/08 05:24:21;;;;;;;1999.90;999.90;;;;;;;;;;5029136;28;20077;-56
2023/01/08 05:26:47;;;;;;;1999.90;999.90;;;;;;;;;;5029542;28;20507;-56
2023/01/08 05:29:13;;;;;;;1999.90;999.90;;;;;;;;;;5029447;28;20168;-57
2023/01/08 05:31:40;;;;;;;1999.90;999.90;;;;;;;;;;5029369;28;20136;-57
2023/01/08 05:34:08;;;;;;;1999.90;999.90;;;;;;;;;;5029223;28;20054;-57
2023/01/08 05:36:34;;;;;;;1999.90;999.90;;;;;;;;;;5029040;28;20144;-56
2023/01/08 05:39:01;;;;;;;1999.90;999.90;;;;;;;;;;5028457;28;20115;-57
2023/01/08 05:41:27;;;;;;;1999.90;999.90;;;;;;;;;;5032210;28;20141;-57
2023/01/08 05:43:54;;;;;;;1999.90;999.90;;;;;;;;;;5033065;28;20160;-56
2023/01/08 05:46:20;;;;;;;1999.90;999.90;;;;;;;;;;5033409;28;20474;-57
2023/01/08 05:48:47;;;;;;;1999.90;999.90;;;;;;;;;;5033061;28;20232;-56
2023/01/08 05:51:15;;;;;;;1999.90;999.90;;;;;;;;;;5032993;28;20132;-58
2023/01/08 05:53:41;;;;;;;1999.90;999.90;;;;;;;;;;5032234;28;20136;-57
2023/01/08 05:56:10;;;;;;;1999.90;999.90;;;;;;;;;;5032592;28;20140;-54
2023/01/08 05:58:37;;;;;;;1999.90;999.90;;;;;;;;;;5030334;28;20077;-54
2023/01/08 06:01:05;;;;;;;1999.90;999.90;;;;;;;;;;5031789;28;20132;-57
2023/01/08 06:03:32;;;;;;;1999.90;999.90;;;;;;;;;;5032559;28;20089;-57
2023/01/08 06:05:59;;;;;;;1999.90;999.90;;;;;;;;;;5032721;28;20144;-55
2023/01/08 06:08:27;;;;;;;1999.90;999.90;;;;;;;;;;5032525;28;20159;-57
2023/01/08 06:10:54;;;;;;;1999.90;999.90;;;;;;;;;;5032530;28;20244;-56
2023/01/08 06:13:20;;;;;;;1999.90;999.90;;;;;;;;;;5032826;28;20145;-58
2023/01/08 06:15:47;;;;;;;1999.90;999.90;;;;;;;;;;5032460;28;20144;-57
2023/01/08 06:18:13;;;;;;;1999.90;999.90;;;;;;;;;;5032617;28;20136;-57
2023/01/08 06:20:40;;;;;;;1999.90;999.90;;;;;;;;;;5031986;28;20133;-57
2023/01/08 06:23:07;;;;;;;1999.90;999.90;;;;;;;;;;5032569;28;20136;-57
2023/01/08 06:25:35;;;;;;;1999.90;999.90;;;;;;;;;;5031615;28;20057;-56
2023/01/08 06:28:02;;;;;;;1999.90;999.90;;;;;;;;;;5031554;28;20157;-56
2023/01/08 06:30:28;;;;;;;1999.90;999.90;;;;;;;;;;5032096;28;20057;-57
2023/01/08 06:32:55;;;;;;;1999.90;999.90;;;;;;;;;;5031910;28;20659;-58
2023/01/08 06:35:22;;;;;;;1999.90;999.90;;;;;;;;;;5031809;28;20140;-57
2023/01/08 06:37:48;;;;;;;1999.90;999.90;;;;;;;;;;5031489;28;20077;-58
2023/01/08 06:40:15;;;;;;;1999.90;999.90;;;;;;;;;;5032176;28;20534;-57
2023/01/08 06:42:45;;;;;;;1999.90;999.90;;;;;;;;;;5031764;28;20115;-56
2023/01/08 06:45:12;;;;;;;1999.90;999.90;;;;;;;;;;5031870;28;20570;-57
2023/01/08 06:47:38;;;;;;;1999.90;999.90;;;;;;;;;;5031566;28;20137;-56
2023/01/08 06:50:06;;;;;;;1999.90;999.90;;;;;;;;;;5031476;28;20483;-56
2023/01/08 06:52:32;;;;;;;1999.90;999.90;;;;;;;;;;5030841;28;20054;-57
2023/01/08 06:54:58;;;;;;;1999.90;999.90;;;;;;;;;;5029974;28;20526;-57
2023/01/08 06:57:25;;;;;;;1999.90;999.90;;;;;;;;;;5031504;28;20474;-57
2023/01/08 06:59:53;;;;;;;1999.90;999.90;;;;;;;;;;5031149;28;20124;-57
2023/01/08 07:02:19;;;;;;;1999.90;999.90;;;;;;;;;;5031191;28;20156;-56
2023/01/08 07:04:46;;;;;;;1999.90;999.90;;;;;;;;;;5031255;28;20049;-57
2023/01/08 07:07:13;;;;;;;1999.90;999.90;;;;;;;;;;5031215;28;20610;-56
2023/01/08 07:09:40;;;;;;;1999.90;999.90;;;;;;;;;;5030879;28;20084;-58
2023/01/08 07:12:08;;;;;;;1999.90;999.90;;;;;;;;;;5031093;28;20077;-57
2023/01/08 07:14:35;;;;;;;1999.90;999.90;;;;;;;;;;5031259;28;20063;-55
2023/01/08 07:17:03;;;;;;;1999.90;999.90;;;;;;;;;;5031347;28;20156;-57
2023/01/08 07:19:30;;;;;;;1999.90;999.90;;;;;;;;;;5030915;28;20128;-58
2023/01/08 07:21:56;;;;;;;1999.90;999.90;;;;;;;;;;5031096;28;20085;-57
2023/01/08 07:24:23;;;;;;;1999.90;999.90;;;;;;;;;;5030820;28;20085;-57
2023/01/08 07:26:49;;;;;;;1999.90;999.90;;;;;;;;;;5030745;28;20501;-57
2023/01/08 07:29:16;;;;;;;1999.90;999.90;;;;;;;;;;5031025;28;20088;-57
2023/01/08 07:31:42;;;;;;;1999.90;999.90;;;;;;;;;;5030340;28;20388;-58
2023/01/08 07:34:10;;;;;;;1999.90;999.90;;;;;;;;;;5030594;28;20080;-57
2023/01/08 07:36:37;;;;;;;1999.90;999.90;;;;;;;;;;5030491;28;20084;-55
2023/01/08 07:39:03;;;;;;;1999.90;999.90;;;;;;;;;;5030709;28;20144;-56
2023/01/08 07:41:30;;;;;;;1999.90;999.90;;;;;;;;;;5030293;28;20140;-57
2023/01/08 07:43:56;;;;;;;1999.90;999.90;;;;;;;;;;5030914;28;20476;-55
2023/01/08 07:46:23;;;;;;;1999.90;999.90;;;;;;;;;;5030480;28;20137;-56
2023/01/08 07:48:49;;;;;;;1999.90;999.90;;;;;;;;;;5030829;28;20143;-57
2023/01/08 07:51:17;;;;;;;1999.90;999.90;;;;;;;;;;5030350;28;20077;-57
2023/01/08 07:53:44;;;;;;;1999.90;999.90;;;;;;;;;;5029949;28;20049;-57
2023/01/08 07:56:10;;;;;;;1999.90;999.90;;;;;;;;;;5030740;28;20556;-57
2023/01/08 07:58:37;;;;;;;1999.90;999.90;;;;;;;;;;5030523;28;20486;-52
2023/01/08 08:01:05;;;;;;;1999.90;999.90;;;;;;;;;;5030611;28;20057;-57
2023/01/08 08:03:32;;;;;;;1999.90;999.90;;;;;;;;;;5029886;28;20415;-57
2023/01/08 08:06:00;;;;;;;1999.90;999.90;;;;;;;;;;5029968;28;20144;-58
2023/01/08 08:08:27;;;;;;;1999.90;999.90;;;;;;;;;;5029830;28;20057;-56
2023/01/08 08:10:54;;;;;;;1999.90;999.90;;;;;;;;;;5029997;28;20099;-55
2023/01/08 08:13:20;;;;;;;1999.90;999.90;;;;;;;;;;5030260;28;20437;-57
2023/01/08 08:15:47;;;;;;;1999.90;999.90;;;;;;;;;;5029789;28;20090;-57
2023/01/08 08:18:13;;;;;;;1999.90;999.90;;;;;;;;;;5030140;28;20055;-58
2023/01/08 08:20:40;;;;;;;1999.90;999.90;;;;;;;;;;5030067;28;20140;-57
2023/01/08 08:23:08;;;;;;;1999.90;999.90;;;;;;;;;;5029268;28;20053;-55
2023/01/08 08:25:36;;;;;;;1999.90;999.90;;;;;;;;;;5029543;28;20144;-57
2023/01/08 08:28:04;;;;;;;1999.90;999.90;;;;;;;;;;5030225;28;20524;-56
2023/01/08 08:30:31;;;;;;;1999.90;999.90;;;;;;;;;;5029746;28;20471;-57
2023/01/08 08:32:59;;;;;;;1999.90;999.90;;;;;;;;;;5029809;28;20148;-58
2023/01/08 08:35:25;;;;;;;1999.90;999.90;;;;;;;;;;5029790;28;20136;-56
2023/01/08 08:37:52;;;;;;;1999.90;999.90;;;;;;;;;;5029292;28;20049;-57
2023/01/08 08:40:18;;;;;;;1999.90;999.90;;;;;;;;;;5030184;28;20439;-57
2023/01/08 08:42:46;;;;;;;1999.90;999.90;;;;;;;;;;5029892;28;20144;-56
2023/01/08 08:45:13;;;;;;;1999.90;999.90;;;;;;;;;;5029856;28;20077;-55
2023/01/08 08:47:40;;;;;;;1999.90;999.90;;;;;;;;;;5028968;28;20158;-60
2023/01/08 08:50:07;;;;;;;1999.90;999.90;;;;;;;;;;5028186;28;20160;-59
2023/01/08 08:52:36;;;;;;;1999.90;999.90;;;;;;;;;;5029704;28;20498;-58
2023/01/08 08:55:02;;;;;;;1999.90;999.90;;;;;;;;;;5028114;28;20053;-59
2023/01/08 08:57:29;;;;;;;1999.90;999.90;;;;;;;;;;5028793;28;20651;-59
2023/01/08 08:59:57;;;;;;;1999.90;999.90;;;;;;;;;;5030015;28;20136;-59
2023/01/08 09:02:23;;;;;;;1999.90;999.90;;;;;;;;;;5029656;28;20215;-59
2023/01/08 09:04:50;;;;;;;1999.90;999.90;;;;;;;;;;5029640;28;20141;-58
2023/01/08 09:07:16;;;;;;;1999.90;999.90;;;;;;;;;;5029358;28;20053;-56
2023/01/08 09:09:43;;;;;;;1999.90;999.90;;;;;;;;;;5029379;28;20137;-57
2023/01/08 09:12:09;;;;;;;1999.90;999.90;;;;;;;;;;5029301;28;20457;-57
2023/01/08 09:14:36;;;;;;;1999.90;999.90;;;;;;;;;;5029701;28;20141;-54
2023/01/08 09:17:04;;;;;;;1999.90;999.90;;;;;;;;;;5033371;28;20524;-57
2023/01/08 09:19:30;;;;;;;1999.90;999.90;;;;;;;;;;5033422;28;20133;-57
2023/01/08 09:21:57;;;;;;;1999.90;999.90;;;;;;;;;;5033523;28;20529;-57
2023/01/08 09:24:23;;;;;;;1999.90;999.90;;;;;;;;;;5031319;28;20149;-58
2023/01/08 09:26:52;;;;;;;1999.90;999.90;;;;;;;;;;5032250;28;20474;-57
2023/01/08 09:29:19;;;;;;;1999.90;999.90;;;;;;;;;;5032978;28;20136;-57
2023/01/08 09:31:46;;;;;;;1999.90;999.90;;;;;;;;;;5033293;28;20140;-59
2023/01/08 09:34:14;;;;;;;1999.90;999.90;;;;;;;;;;5033289;28;20144;-59
2023/01/08 09:36:40;;;;;;;1999.90;999.90;;;;;;;;;;5032787;28;20180;-53
2023/01/08 09:39:08;;;;;;;1999.90;999.90;;;;;;;;;;5033172;28;20046;-57
2023/01/08 09:41:37;;;;;;;1999.90;999.90;;;;;;;;;;5032846;28;20049;-56
2023/01/08 09:44:05;;;;;;;1999.90;999.90;;;;;;;;;;5032350;28;20084;-56
2023/01/08 09:46:32;;;;;;;1999.90;999.90;;;;;;;;;;5032733;28;20128;-56
2023/01/08 09:49:01;;;;;;;1999.90;999.90;;;;;;;;;;5032282;28;20073;-58
2023/01/08 09:51:33;;;;;;;1999.90;999.90;;;;;;;;;;5031163;28;20081;-55
2023/01/08 09:54:00;;;;;;;1999.90;999.90;;;;;;;;;;5032780;28;20103;-55
2023/01/08 09:56:27;;;;;;;1999.90;999.90;;;;;;;;;;5033263;28;20132;-57
2023/01/08 09:58:55;;;;;;;1999.90;999.90;;;;;;;;;;5033003;28;20165;-59
2023/01/08 10:01:23;;;;;;;1999.90;999.90;;;;;;;;;;5032421;28;20136;-58
2023/01/08 10:03:51;;;;;;;1999.90;999.90;;;;;;;;;;5032468;28;20143;-59
2023/01/08 10:06:18;;;;;;;1999.90;999.90;;;;;;;;;;5032717;28;20140;-57
2023/01/08 10:08:46;;;;;;;1999.90;999.90;;;;;;;;;;5031676;28;20049;-56
2023/01/08 10:11:14;;;;;;;1999.90;999.90;;;;;;;;;;5032710;28;20142;-57
2023/01/08 10:13:41;;;;;;;1999.90;999.90;;;;;;;;;;5034803;28;20080;-64
2023/01/08 10:16:10;;;;;;;1999.90;999.90;;;;;;;;;;5035765;28;20128;-65
2023/01/08 10:18:40;;;;;;;1999.90;999.90;;;;;;;;;;5036530;28;20057;-63
2023/01/08 10:21:09;;;;;;;1999.90;999.90;;;;;;;;;;5032901;28;20049;-68
2023/01/08 10:23:35;;;;;;;1999.90;999.90;;;;;;;;;;5032280;28;20050;-62
2023/01/08 10:26:04;;;;;;;1999.90;999.90;;;;;;;;;;5032002;28;20132;-59
2023/01/08 10:28:34;;;;;;;1999.90;999.90;;;;;;;;;;5031355;28;20053;-61
2023/01/08 10:31:05;;;;;;;1999.90;999.90;;;;;;;;;;5032906;28;20046;-61
2023/01/08 10:33:38;;;;;;;1999.90;999.90;;;;;;;;;;5031205;28;20162;-61
2023/01/08 10:36:08;;;;;;;1999.90;999.90;;;;;;;;;;5031434;28;20057;-61
2023/01/08 10:38:37;;;;;;;1999.90;999.90;;;;;;;;;;5030466;28;20128;-59
2023/01/08 10:41:09;;;;;;;1999.90;999.90;;;;;;;;;;5032224;28;20107;-61
2023/01/08 10:43:41;;;;;;;1999.90;999.90;;;;;;;;;;5028888;28;20118;-63
2023/01/08 10:46:14;;;;;;;1999.90;999.90;;;;;;;;;;5031059;28;20056;-61
2023/01/08 10:48:46;;;;;;;1999.90;999.90;;;;;;;;;;5032108;28;20057;-61
2023/01/08 10:51:15;;;;;;;1999.90;999.90;;;;;;;;;;5031778;28;20546;-61
2023/01/08 10:53:42;;;;;;;1999.90;999.90;;;;;;;;;;5030712;28;20056;-61
2023/01/08 10:56:19;;;;;;;1999.90;999.90;;;;;;;;;;5031645;28;20056;-61
2023/01/08 10:58:46;;;;;;;1999.90;999.90;;;;;;;;;;5030740;28;20057;-62
2023/01/08 11:01:17;;;;;;;1999.90;999.90;;;;;;;;;;5031681;28;20484;-61
2023/01/08 11:03:43;;;;;;;1999.90;999.90;;;;;;;;;;5030848;28;20080;-61
2023/01/08 11:06:11;;;;;;;1999.90;999.90;;;;;;;;;;5031447;28;20152;-61
2023/01/08 11:08:38;;;;;;;1999.90;999.90;;;;;;;;;;5031328;28;20144;-61
2023/01/08 11:11:07;;;;;;;1999.90;999.90;;;;;;;;;;5031090;28;20140;-61
2023/01/08 11:13:35;;;;;;;1999.90;999.90;;;;;;;;;;5030644;28;20201;-61
2023/01/08 11:16:05;;;;;;;1999.90;999.90;;;;;;;;;;5031092;28;20080;-60
2023/01/08 11:18:35;;;;;;;1999.90;999.90;;;;;;;;;;5029835;28;20136;-61
2023/01/08 11:21:07;;;;;;;1999.90;999.90;;;;;;;;;;5031066;28;20087;-61
2023/01/08 11:23:34;;;;;;;1999.90;999.90;;;;;;;;;;5030195;28;20084;-61
2023/01/08 11:26:05;;;;;;;1999.90;999.90;;;;;;;;;;5031167;28;20060;-60
2023/01/08 11:28:45;;;;;;;1999.90;999.90;;;;;;;;;;5030881;28;20049;-65
2023/01/08 11:31:15;;;;;;;1999.90;999.90;;;;;;;;;;5031156;28;20053;-64
2023/01/08 11:33:42;;;;;;;1999.90;999.90;;;;;;;;;;5031181;28;20060;-67
2023/01/08 11:36:13;;;;;;;1999.90;999.90;;;;;;;;;;5031687;28;20103;-66
2023/01/08 11:38:39;;;;;;;1999.90;999.90;;;;;;;;;;5030227;28;20701;-60
2023/01/08 11:41:17;;;;;;;1999.90;999.90;;;;;;;;;;5031205;28;20128;-62
2023/01/08 11:44:00;;;;;;;1999.90;999.90;;;;;;;;;;5030826;28;20077;-58
2023/01/08 11:46:33;;;;;;;1999.90;999.90;;;;;;;;;;5030106;28;20136;-64
2023/01/08 11:49:21;;;;;;;1999.90;999.90;;;;;;;;;;5029852;28;20087;-65
2023/01/08 11:52:02;;;;;;;1999.90;999.90;;;;;;;;;;5030310;28;20041;-65
2023/01/08 11:54:42;;;;;;;1999.90;999.90;;;;;;;;;;5031405;28;20073;-66
2023/01/08 11:57:18;;;;;;;1999.90;999.90;;;;;;;;;;5031014;28;20132;-65
2023/01/08 12:00:01;;;;;;;1999.90;999.90;;;;;;;;;;5030350;28;20081;-62
2023/01/08 12:02:38;;;;;;;1999.90;999.90;;;;;;;;;;5030907;28;20470;-61
2023/01/08 12:05:22;;;;;;;1999.90;999.90;;;;;;;;;;5030766;28;20432;-56
2023/01/08 12:07:56;;;;;;;1999.90;999.90;;;;;;;;;;5030360;28;20057;-63
2023/01/08 12:10:26;;;;;;;1999.90;999.90;;;;;;;;;;5030576;28;20562;-62
2023/01/08 12:13:01;;;;;;;1999.90;999.90;;;;;;;;;;5030979;28;20057;-73
2023/01/08 12:15:43;;;;;;;1999.90;999.90;;;;;;;;;;5029804;28;20132;-70
2023/01/08 12:18:35;;;;;;;1999.90;999.90;;;;;;;;;;5030859;28;20084;-64
2023/01/08 12:21:06;;;;;;;1999.90;999.90;;;;;;;;;;5031262;28;20053;-65
2023/01/08 12:23:47;;;;;;;1999.90;999.90;;;;;;;;;;5030805;28;20566;-62
2023/01/08 12:26:19;;;;;;;1999.90;999.90;;;;;;;;;;5030391;28;20145;-63
2023/01/08 12:29:08;;;;;;;1999.90;999.90;;;;;;;;;;5029197;28;20133;-63
2023/01/08 12:31:50;;;;;;;1999.90;999.90;;;;;;;;;;5028564;28;20128;-67
2023/01/08 12:34:20;;;;;;;1999.90;999.90;;;;;;;;;;5030497;28;20052;-64
2023/01/08 12:36:49;;;;;;;1999.90;999.90;;;;;;;;;;5030702;28;20076;-69
2023/01/08 12:39:21;;;;;;;1999.90;999.90;;;;;;;;;;5028847;28;20081;-62
2023/01/08 12:41:48;;;;;;;1999.90;999.90;;;;;;;;;;5029859;28;20584;-72
2023/01/08 12:44:18;;;;;;;1999.90;999.90;;;;;;;;;;5029258;28;20136;-62
2023/01/08 12:46:48;;;;;;;1999.90;999.90;;;;;;;;;;5031583;28;20804;-63
2023/01/08 12:49:21;;;;;;;1999.90;999.90;;;;;;;;;;5030112;28;20049;-58
2023/01/08 12:51:55;;;;;;;1999.90;999.90;;;;;;;;;;5029782;28;20084;-58
2023/01/08 12:54:26;;;;;;;1999.90;999.90;;;;;;;;;;5029761;28;20136;-59
2023/01/08 12:56:55;;;;;;;1999.90;999.90;;;;;;;;;;5029437;28;20140;-59
2023/01/08 12:59:30;;;;;;;1999.90;999.90;;;;;;;;;;5029866;28;20504;-57
2023/01/08 13:02:03;;;;;;;1999.90;999.90;;;;;;;;;;5030133;28;20136;-59
2023/01/08 13:04:39;;;;;;;1999.90;999.90;;;;;;;;;;5028622;28;20049;-59
2023/01/08 13:07:06;;;;;;;1999.90;999.90;;;;;;;;;;5029489;28;20133;-58
2023/01/08 13:09:33;;;;;;;1999.90;999.90;;;;;;;;;;5029850;28;20099;-59
2023/01/08 13:12:00;;;;;;;1999.90;999.90;;;;;;;;;;5029095;28;20136;-58
2023/01/08 13:14:27;;;;;;;1999.90;999.90;;;;;;;;;;5029800;28;20151;-58
2023/01/08 13:17:06;;;;;;;1999.90;999.90;;;;;;;;;;5029586;28;20136;-59
2023/01/08 13:19:37;;;;;;;1999.90;999.90;;;;;;;;;;5030292;28;20572;-58
2023/01/08 13:22:04;;;;;;;1999.90;999.90;;;;;;;;;;5029788;28;20753;-58
2023/01/08 13:24:33;;;;;;;1999.90;999.90;;;;;;;;;;5029976;28;20381;-59
2023/01/08 13:27:11;;;;;;;1999.90;999.90;;;;;;;;;;5029704;28;20049;-56
2023/01/08 13:29:40;;;;;;;1999.90;999.90;;;;;;;;;;5029499;28;20119;-57
2023/01/08 13:32:24;;;;;;;1999.90;999.90;;;;;;;;;;5028311;28;20056;-59
2023/01/08 13:35:01;;;;;;;1999.90;999.90;;;;;;;;;;5028773;28;20136;-57
2023/01/08 13:37:27;;;;;;;1999.90;999.90;;;;;;;;;;5029444;28;20139;-56
2023/01/08 13:39:54;;;;;;;1999.90;999.90;;;;;;;;;;5028708;28;20085;-56
2023/01/08 13:42:23;;;;;;;1999.90;999.90;;;;;;;;;;5029476;28;20468;-57
2023/01/08 13:44:51;;;;;;;1999.90;999.90;;;;;;;;;;5029731;28;20491;-57
2023/01/08 13:47:22;;;;;;;1999.90;999.90;;;;;;;;;;5029128;28;20080;-56
2023/01/08 13:49:52;;;;;;;1999.90;999.90;;;;;;;;;;5030327;28;20713;-60
2023/01/08 13:52:31;;;;;;;1999.90;999.90;;;;;;;;;;5030815;28;20053;-60